sensor_id;sensor_type;location;lat;lon;timestamp;P1;durP1;ratioP1;P2;durP2;ratioP2
59960;SDS011;55902;-37.980;-63.602;2022-11-20T00:00:19;5.28;;;2.03;;
59960;SDS011;55902;-37.980;-63.602;2022-11-20T00:02:46;7.50;;;2.50;;
59960;SDS011;55902;-37.980;-63.602;2022-11-20T00:05:13;7.72;;;3.00;;
59960;SDS011;55902;-37.980;-63.602;2022-11-20T00:07:40;9.27;;;4.00;;
59960;SDS011;55902;-37.980;-63.602;2022-11-20T00:10:07;7.82;;;3.72;;
59960;SDS011;55902;-37.980;-63.602;2022-11-20T00:12:34;11.68;;;3.22;;
59960;SDS011;55902;-37.980;-63.602;2022-11-20T00:15:01;8.40;;;3.35;;
59960;SDS011;55902;-37.980;-63.602;2022-11-20T00:17:28;9.52;;;3.97;;
59960;SDS011;55902;-37.980;-63.602;2022-11-20T00:19:55;10.23;;;3.20;;
59960;SDS011;55902;-37.980;-63.602;2022-11-20T00:22:22;7.90;;;2.60;;
59960;SDS011;55902;-37.980;-63.602;2022-11-20T00:24:49;7.38;;;2.20;;
59960;SDS011;55902;-37.980;-63.602;2022-11-20T00:27:16;8.20;;;2.10;;
59960;SDS011;55902;-37.980;-63.602;2022-11-20T00:29:43;8.95;;;2.10;;
59960;SDS011;55902;-37.980;-63.602;2022-11-20T00:32:10;12.75;;;4.35;;
59960;SDS011;55902;-37.980;-63.602;2022-11-20T00:34:37;21.70;;;6.97;;
59960;SDS011;55902;-37.980;-63.602;2022-11-20T00:37:04;14.13;;;5.35;;
59960;SDS011;55902;-37.980;-63.602;2022-11-20T00:39:30;9.02;;;4.40;;
59960;SDS011;55902;-37.980;-63.602;2022-11-20T00:41:57;11.85;;;4.40;;
59960;SDS011;55902;-37.980;-63.602;2022-11-20T00:44:24;11.82;;;5.93;;
59960;SDS011;55902;-37.980;-63.602;2022-11-20T00:46:51;15.45;;;6.82;;
59960;SDS011;55902;-37.980;-63.602;2022-11-20T00:49:18;21.27;;;12.25;;
59960;SDS011;55902;-37.980;-63.602;2022-11-20T00:51:45;12.55;;;8.38;;
59960;SDS011;55902;-37.980;-63.602;2022-11-20T00:54:12;11.68;;;6.43;;
59960;SDS011;55902;-37.980;-63.602;2022-11-20T00:56:39;11.00;;;4.97;;
59960;SDS011;55902;-37.980;-63.602;2022-11-20T00:59:06;8.05;;;3.83;;
59960;SDS011;55902;-37.980;-63.602;2022-11-20T01:01:34;5.38;;;3.05;;
59960;SDS011;55902;-37.980;-63.602;2022-11-20T01:04:03;4.18;;;2.85;;
59960;SDS011;55902;-37.980;-63.602;2022-11-20T01:06:31;9.60;;;5.22;;
59960;SDS011;55902;-37.980;-63.602;2022-11-20T01:09:00;6.10;;;3.30;;
59960;SDS011;55902;-37.980;-63.602;2022-11-20T01:11:34;8.13;;;3.13;;
59960;SDS011;55902;-37.980;-63.602;2022-11-20T01:14:05;4.57;;;2.17;;
59960;SDS011;55902;-37.980;-63.602;2022-11-20T01:16:34;5.38;;;2.08;;
59960;SDS011;55902;-37.980;-63.602;2022-11-20T01:19:04;4.03;;;1.50;;
59960;SDS011;55902;-37.980;-63.602;2022-11-20T01:21:34;7.10;;;2.88;;
59960;SDS011;55902;-37.980;-63.602;2022-11-20T01:24:07;4.60;;;3.03;;
59960;SDS011;55902;-37.980;-63.602;2022-11-20T01:26:42;6.70;;;3.83;;
59960;SDS011;55902;-37.980;-63.602;2022-11-20T01:29:13;5.22;;;2.40;;
59960;SDS011;55902;-37.980;-63.602;2022-11-20T01:31:42;12.13;;;3.40;;
59960;SDS011;55902;-37.980;-63.602;2022-11-20T01:34:10;5.78;;;3.30;;
59960;SDS011;55902;-37.980;-63.602;2022-11-20T01:36:39;5.28;;;2.90;;
59960;SDS011;55902;-37.980;-63.602;2022-11-20T01:39:14;5.60;;;2.10;;
59960;SDS011;55902;-37.980;-63.602;2022-11-20T01:41:42;3.53;;;1.80;;
59960;SDS011;55902;-37.980;-63.602;2022-11-20T01:47:25;5.28;;;1.70;;
59960;SDS011;55902;-37.980;-63.602;2022-11-20T01:49:58;4.20;;;1.58;;
59960;SDS011;55902;-37.980;-63.602;2022-11-20T01:52:45;6.68;;;2.38;;
59960;SDS011;55902;-37.980;-63.602;2022-11-20T01:55:21;5.13;;;1.90;;
59960;SDS011;55902;-37.980;-63.602;2022-11-20T01:57:51;5.57;;;1.70;;
59960;SDS011;55902;-37.980;-63.602;2022-11-20T02:00:19;5.60;;;1.70;;
59960;SDS011;55902;-37.980;-63.602;2022-11-20T02:03:10;8.05;;;1.98;;
59960;SDS011;55902;-37.980;-63.602;2022-11-20T02:05:49;6.55;;;1.70;;
59960;SDS011;55902;-37.980;-63.602;2022-11-20T02:40:36;1.50;;;1.00;;
59960;SDS011;55902;-37.980;-63.602;2022-11-20T02:43:07;2.15;;;1.00;;
59960;SDS011;55902;-37.980;-63.602;2022-11-20T02:45:34;3.50;;;0.85;;
59960;SDS011;55902;-37.980;-63.602;2022-11-20T02:48:09;1.83;;;0.82;;
59960;SDS011;55902;-37.980;-63.602;2022-11-20T02:50:36;1.90;;;0.80;;
59960;SDS011;55902;-37.980;-63.602;2022-11-20T02:53:12;3.00;;;1.00;;
59960;SDS011;55902;-37.980;-63.602;2022-11-20T02:55:44;2.45;;;0.90;;
59960;SDS011;55902;-37.980;-63.602;2022-11-20T02:58:14;2.20;;;0.95;;
59960;SDS011;55902;-37.980;-63.602;2022-11-20T03:00:43;2.15;;;0.82;;
59960;SDS011;55902;-37.980;-63.602;2022-11-20T03:03:13;2.03;;;1.10;;
59960;SDS011;55902;-37.980;-63.602;2022-11-20T03:05:40;2.53;;;1.00;;
59960;SDS011;55902;-37.980;-63.602;2022-11-20T03:08:12;4.10;;;1.20;;
59960;SDS011;55902;-37.980;-63.602;2022-11-20T03:10:43;1.90;;;1.00;;
59960;SDS011;55902;-37.980;-63.602;2022-11-20T03:13:09;2.05;;;1.00;;
59960;SDS011;55902;-37.980;-63.602;2022-11-20T03:15:36;2.72;;;1.00;;
59960;SDS011;55902;-37.980;-63.602;2022-11-20T03:18:07;5.63;;;1.83;;
59960;SDS011;55902;-37.980;-63.602;2022-11-20T03:20:34;1.75;;;1.02;;
59960;SDS011;55902;-37.980;-63.602;2022-11-20T03:23:06;3.40;;;1.10;;
59960;SDS011;55902;-37.980;-63.602;2022-11-20T03:25:33;4.20;;;1.40;;
59960;SDS011;55902;-37.980;-63.602;2022-11-20T03:28:00;2.10;;;1.10;;
59960;SDS011;55902;-37.980;-63.602;2022-11-20T03:30:34;4.60;;;1.30;;
59960;SDS011;55902;-37.980;-63.602;2022-11-20T03:33:09;3.67;;;1.80;;
59960;SDS011;55902;-37.980;-63.602;2022-11-20T03:35:36;3.50;;;1.45;;
59960;SDS011;55902;-37.980;-63.602;2022-11-20T03:38:11;3.45;;;1.60;;
59960;SDS011;55902;-37.980;-63.602;2022-11-20T03:40:38;3.17;;;1.58;;
59960;SDS011;55902;-37.980;-63.602;2022-11-20T03:43:05;3.97;;;1.63;;
59960;SDS011;55902;-37.980;-63.602;2022-11-20T03:45:32;6.03;;;1.80;;
59960;SDS011;55902;-37.980;-63.602;2022-11-20T03:47:59;3.63;;;1.70;;
59960;SDS011;55902;-37.980;-63.602;2022-11-20T03:50:32;5.95;;;2.30;;
59960;SDS011;55902;-37.980;-63.602;2022-11-20T03:53:02;4.60;;;1.73;;
59960;SDS011;55902;-37.980;-63.602;2022-11-20T03:55:34;5.55;;;2.15;;
59960;SDS011;55902;-37.980;-63.602;2022-11-20T03:58:05;8.35;;;2.05;;
59960;SDS011;55902;-37.980;-63.602;2022-11-20T04:00:32;5.97;;;1.92;;
59960;SDS011;55902;-37.980;-63.602;2022-11-20T04:02:59;3.13;;;1.65;;
59960;SDS011;55902;-37.980;-63.602;2022-11-20T04:05:33;4.00;;;2.20;;
59960;SDS011;55902;-37.980;-63.602;2022-11-20T04:08:07;5.10;;;1.90;;
59960;SDS011;55902;-37.980;-63.602;2022-11-20T04:10:33;4.20;;;1.63;;
59960;SDS011;55902;-37.980;-63.602;2022-11-20T04:13:01;3.63;;;1.75;;
59960;SDS011;55902;-37.980;-63.602;2022-11-20T04:15:27;3.20;;;1.90;;
59960;SDS011;55902;-37.980;-63.602;2022-11-20T04:17:58;3.67;;;1.73;;
59960;SDS011;55902;-37.980;-63.602;2022-11-20T04:20:25;3.25;;;1.60;;
59960;SDS011;55902;-37.980;-63.602;2022-11-20T04:22:55;2.88;;;1.63;;
59960;SDS011;55902;-37.980;-63.602;2022-11-20T04:25:25;3.30;;;1.70;;
59960;SDS011;55902;-37.980;-63.602;2022-11-20T04:27:52;2.22;;;1.50;;
59960;SDS011;55902;-37.980;-63.602;2022-11-20T04:30:19;2.80;;;1.80;;
59960;SDS011;55902;-37.980;-63.602;2022-11-20T04:32:52;2.33;;;1.77;;
59960;SDS011;55902;-37.980;-63.602;2022-11-20T04:35:25;1.92;;;1.70;;
59960;SDS011;55902;-37.980;-63.602;2022-11-20T04:37:52;2.75;;;1.70;;
59960;SDS011;55902;-37.980;-63.602;2022-11-20T04:40:22;2.80;;;2.08;;
59960;SDS011;55902;-37.980;-63.602;2022-11-20T04:42:51;2.25;;;1.67;;
59960;SDS011;55902;-37.980;-63.602;2022-11-20T04:45:22;1.92;;;1.75;;
59960;SDS011;55902;-37.980;-63.602;2022-11-20T04:47:50;2.13;;;1.80;;
59960;SDS011;55902;-37.980;-63.602;2022-11-20T04:50:17;2.00;;;1.55;;
59960;SDS011;55902;-37.980;-63.602;2022-11-20T04:52:44;2.00;;;1.40;;
59960;SDS011;55902;-37.980;-63.602;2022-11-20T04:55:15;2.00;;;1.80;;
59960;SDS011;55902;-37.980;-63.602;2022-11-20T04:57:44;4.38;;;1.77;;
59960;SDS011;55902;-37.980;-63.602;2022-11-20T05:00:15;1.90;;;1.40;;
59960;SDS011;55902;-37.980;-63.602;2022-11-20T05:02:42;2.45;;;1.60;;
59960;SDS011;55902;-37.980;-63.602;2022-11-20T05:05:12;1.95;;;1.75;;
59960;SDS011;55902;-37.980;-63.602;2022-11-20T05:07:45;2.33;;;1.60;;
59960;SDS011;55902;-37.980;-63.602;2022-11-20T05:10:15;4.30;;;1.80;;
59960;SDS011;55902;-37.980;-63.602;2022-11-20T05:12:45;3.05;;;1.70;;
59960;SDS011;55902;-37.980;-63.602;2022-11-20T05:15:12;2.42;;;1.60;;
59960;SDS011;55902;-37.980;-63.602;2022-11-20T05:17:39;3.45;;;1.70;;
59960;SDS011;55902;-37.980;-63.602;2022-11-20T05:20:10;2.00;;;1.60;;
59960;SDS011;55902;-37.980;-63.602;2022-11-20T05:22:37;1.50;;;1.38;;
59960;SDS011;55902;-37.980;-63.602;2022-11-20T05:25:08;1.90;;;1.40;;
59960;SDS011;55902;-37.980;-63.602;2022-11-20T05:27:38;1.83;;;1.38;;
59960;SDS011;55902;-37.980;-63.602;2022-11-20T05:30:06;2.30;;;1.70;;
59960;SDS011;55902;-37.980;-63.602;2022-11-20T05:32:36;1.95;;;1.50;;
59960;SDS011;55902;-37.980;-63.602;2022-11-20T05:35:06;1.48;;;1.38;;
59960;SDS011;55902;-37.980;-63.602;2022-11-20T05:37:40;1.40;;;1.30;;
59960;SDS011;55902;-37.980;-63.602;2022-11-20T05:40:10;1.60;;;1.50;;
59960;SDS011;55902;-37.980;-63.602;2022-11-20T05:42:37;1.60;;;1.33;;
59960;SDS011;55902;-37.980;-63.602;2022-11-20T05:45:08;1.63;;;1.40;;
59960;SDS011;55902;-37.980;-63.602;2022-11-20T05:47:35;1.75;;;1.50;;
59960;SDS011;55902;-37.980;-63.602;2022-11-20T05:50:02;2.03;;;1.40;;
59960;SDS011;55902;-37.980;-63.602;2022-11-20T05:52:34;2.08;;;1.50;;
59960;SDS011;55902;-37.980;-63.602;2022-11-20T05:55:02;1.50;;;1.33;;
59960;SDS011;55902;-37.980;-63.602;2022-11-20T05:57:31;2.33;;;1.60;;
59960;SDS011;55902;-37.980;-63.602;2022-11-20T06:00:02;1.98;;;1.40;;
59960;SDS011;55902;-37.980;-63.602;2022-11-20T06:02:34;1.98;;;1.45;;
59960;SDS011;55902;-37.980;-63.602;2022-11-20T06:05:01;1.83;;;1.60;;
59960;SDS011;55902;-37.980;-63.602;2022-11-20T06:07:28;2.28;;;1.40;;
59960;SDS011;55902;-37.980;-63.602;2022-11-20T06:09:55;2.30;;;1.40;;
59960;SDS011;55902;-37.980;-63.602;2022-11-20T06:12:22;1.70;;;1.30;;
59960;SDS011;55902;-37.980;-63.602;2022-11-20T06:14:49;2.05;;;1.38;;
59960;SDS011;55902;-37.980;-63.602;2022-11-20T06:17:19;2.63;;;1.38;;
59960;SDS011;55902;-37.980;-63.602;2022-11-20T06:19:45;1.92;;;1.27;;
59960;SDS011;55902;-37.980;-63.602;2022-11-20T06:22:13;1.95;;;1.60;;
59960;SDS011;55902;-37.980;-63.602;2022-11-20T06:24:40;2.22;;;1.42;;
59960;SDS011;55902;-37.980;-63.602;2022-11-20T06:27:07;3.47;;;1.60;;
59960;SDS011;55902;-37.980;-63.602;2022-11-20T06:29:34;1.98;;;1.25;;
59960;SDS011;55902;-37.980;-63.602;2022-11-20T06:32:01;1.70;;;1.30;;
59960;SDS011;55902;-37.980;-63.602;2022-11-20T06:34:28;2.58;;;1.40;;
59960;SDS011;55902;-37.980;-63.602;2022-11-20T06:36:57;1.65;;;1.20;;
59960;SDS011;55902;-37.980;-63.602;2022-11-20T06:39:27;1.80;;;1.40;;
59960;SDS011;55902;-37.980;-63.602;2022-11-20T06:41:57;1.83;;;1.50;;
59960;SDS011;55902;-37.980;-63.602;2022-11-20T06:44:27;3.33;;;1.40;;
59960;SDS011;55902;-37.980;-63.602;2022-11-20T06:46:56;2.78;;;1.23;;
59960;SDS011;55902;-37.980;-63.602;2022-11-20T06:49:23;2.42;;;1.40;;
59960;SDS011;55902;-37.980;-63.602;2022-11-20T06:51:56;1.90;;;1.40;;
59960;SDS011;55902;-37.980;-63.602;2022-11-20T06:54:23;2.65;;;1.60;;
59960;SDS011;55902;-37.980;-63.602;2022-11-20T06:56:50;2.72;;;1.25;;
59960;SDS011;55902;-37.980;-63.602;2022-11-20T06:59:17;2.08;;;1.40;;
59960;SDS011;55902;-37.980;-63.602;2022-11-20T07:01:47;1.48;;;1.30;;
59960;SDS011;55902;-37.980;-63.602;2022-11-20T07:04:21;1.50;;;1.40;;
59960;SDS011;55902;-37.980;-63.602;2022-11-20T07:06:49;1.55;;;1.40;;
59960;SDS011;55902;-37.980;-63.602;2022-11-20T07:09:19;5.60;;;1.48;;
59960;SDS011;55902;-37.980;-63.602;2022-11-20T07:11:46;1.80;;;1.60;;
59960;SDS011;55902;-37.980;-63.602;2022-11-20T07:14:13;2.28;;;1.65;;
59960;SDS011;55902;-37.980;-63.602;2022-11-20T07:16:43;2.88;;;1.67;;
59960;SDS011;55902;-37.980;-63.602;2022-11-20T07:19:13;2.40;;;1.52;;
59960;SDS011;55902;-37.980;-63.602;2022-11-20T07:21:40;2.13;;;1.60;;
59960;SDS011;55902;-37.980;-63.602;2022-11-20T07:24:10;1.70;;;1.58;;
59960;SDS011;55902;-37.980;-63.602;2022-11-20T07:26:37;2.85;;;2.00;;
59960;SDS011;55902;-37.980;-63.602;2022-11-20T07:29:04;3.55;;;1.70;;
59960;SDS011;55902;-37.980;-63.602;2022-11-20T07:31:34;6.43;;;2.13;;
59960;SDS011;55902;-37.980;-63.602;2022-11-20T07:34:04;6.55;;;2.10;;
59960;SDS011;55902;-37.980;-63.602;2022-11-20T07:36:35;4.53;;;2.20;;
59960;SDS011;55902;-37.980;-63.602;2022-11-20T07:39:02;3.85;;;2.38;;
59960;SDS011;55902;-37.980;-63.602;2022-11-20T07:41:36;3.53;;;2.13;;
59960;SDS011;55902;-37.980;-63.602;2022-11-20T07:44:07;3.35;;;2.10;;
59960;SDS011;55902;-37.980;-63.602;2022-11-20T07:46:34;5.57;;;2.13;;
59960;SDS011;55902;-37.980;-63.602;2022-11-20T07:49:01;5.00;;;2.60;;
59960;SDS011;55902;-37.980;-63.602;2022-11-20T07:51:32;3.75;;;2.20;;
59960;SDS011;55902;-37.980;-63.602;2022-11-20T07:53:58;6.28;;;2.50;;
59960;SDS011;55902;-37.980;-63.602;2022-11-20T07:56:25;6.47;;;2.33;;
59960;SDS011;55902;-37.980;-63.602;2022-11-20T07:58:52;4.82;;;2.33;;
59960;SDS011;55902;-37.980;-63.602;2022-11-20T08:01:22;5.30;;;2.45;;
59960;SDS011;55902;-37.980;-63.602;2022-11-20T08:03:53;4.32;;;2.42;;
59960;SDS011;55902;-37.980;-63.602;2022-11-20T08:06:23;5.28;;;2.60;;
59960;SDS011;55902;-37.980;-63.602;2022-11-20T08:08:50;4.63;;;2.10;;
59960;SDS011;55902;-37.980;-63.602;2022-11-20T08:11:18;5.45;;;2.38;;
59960;SDS011;55902;-37.980;-63.602;2022-11-20T08:14:03;4.72;;;2.10;;
59960;SDS011;55902;-37.980;-63.602;2022-11-20T08:16:41;4.78;;;2.40;;
59960;SDS011;55902;-37.980;-63.602;2022-11-20T08:19:17;5.30;;;2.20;;
59960;SDS011;55902;-37.980;-63.602;2022-11-20T08:21:47;5.00;;;2.40;;
59960;SDS011;55902;-37.980;-63.602;2022-11-20T08:24:14;4.65;;;2.17;;
59960;SDS011;55902;-37.980;-63.602;2022-11-20T08:26:41;4.65;;;2.35;;
59960;SDS011;55902;-37.980;-63.602;2022-11-20T08:29:08;6.65;;;2.17;;
59960;SDS011;55902;-37.980;-63.602;2022-11-20T08:31:38;7.13;;;2.17;;
59960;SDS011;55902;-37.980;-63.602;2022-11-20T08:34:08;4.85;;;2.28;;
59960;SDS011;55902;-37.980;-63.602;2022-11-20T08:36:35;5.68;;;2.30;;
59960;SDS011;55902;-37.980;-63.602;2022-11-20T08:39:02;5.65;;;2.50;;
59960;SDS011;55902;-37.980;-63.602;2022-11-20T08:41:32;4.35;;;2.00;;
59960;SDS011;55902;-37.980;-63.602;2022-11-20T08:44:03;5.50;;;2.25;;
59960;SDS011;55902;-37.980;-63.602;2022-11-20T08:46:35;5.13;;;2.10;;
59960;SDS011;55902;-37.980;-63.602;2022-11-20T08:49:08;5.07;;;2.20;;
59960;SDS011;55902;-37.980;-63.602;2022-11-20T08:51:39;7.13;;;2.38;;
59960;SDS011;55902;-37.980;-63.602;2022-11-20T08:54:07;5.45;;;2.35;;
59960;SDS011;55902;-37.980;-63.602;2022-11-20T08:56:43;7.72;;;2.53;;
59960;SDS011;55902;-37.980;-63.602;2022-11-20T08:59:13;7.20;;;2.17;;
59960;SDS011;55902;-37.980;-63.602;2022-11-20T09:01:40;7.18;;;2.13;;
59960;SDS011;55902;-37.980;-63.602;2022-11-20T09:04:10;4.88;;;2.42;;
59960;SDS011;55902;-37.980;-63.602;2022-11-20T09:06:42;7.45;;;2.40;;
59960;SDS011;55902;-37.980;-63.602;2022-11-20T09:09:09;6.95;;;2.15;;
59960;SDS011;55902;-37.980;-63.602;2022-11-20T09:11:38;7.28;;;2.20;;
59960;SDS011;55902;-37.980;-63.602;2022-11-20T09:14:05;4.05;;;1.98;;
59960;SDS011;55902;-37.980;-63.602;2022-11-20T09:16:39;9.15;;;2.40;;
59960;SDS011;55902;-37.980;-63.602;2022-11-20T09:19:06;6.95;;;2.30;;
59960;SDS011;55902;-37.980;-63.602;2022-11-20T09:21:33;5.70;;;2.17;;
59960;SDS011;55902;-37.980;-63.602;2022-11-20T09:24:00;7.85;;;2.45;;
59960;SDS011;55902;-37.980;-63.602;2022-11-20T09:26:30;6.38;;;2.38;;
59960;SDS011;55902;-37.980;-63.602;2022-11-20T09:28:59;10.95;;;2.20;;
59960;SDS011;55902;-37.980;-63.602;2022-11-20T09:31:27;7.72;;;2.42;;
59960;SDS011;55902;-37.980;-63.602;2022-11-20T09:33:54;6.72;;;2.08;;
59960;SDS011;55902;-37.980;-63.602;2022-11-20T09:36:24;6.72;;;2.22;;
59960;SDS011;55902;-37.980;-63.602;2022-11-20T09:38:51;6.43;;;2.35;;
59960;SDS011;55902;-37.980;-63.602;2022-11-20T09:41:27;7.38;;;2.92;;
59960;SDS011;55902;-37.980;-63.602;2022-11-20T09:47:13;8.98;;;2.35;;
59960;SDS011;55902;-37.980;-63.602;2022-11-20T09:55:25;8.07;;;2.45;;
59960;SDS011;55902;-37.980;-63.602;2022-11-20T09:57:58;7.13;;;2.53;;
59960;SDS011;55902;-37.980;-63.602;2022-11-20T10:00:26;7.07;;;2.40;;
59960;SDS011;55902;-37.980;-63.602;2022-11-20T10:02:55;7.57;;;2.53;;
59960;SDS011;55902;-37.980;-63.602;2022-11-20T10:05:36;7.38;;;2.40;;
59960;SDS011;55902;-37.980;-63.602;2022-11-20T10:08:22;8.80;;;2.20;;
59960;SDS011;55902;-37.980;-63.602;2022-11-20T10:11:13;8.10;;;2.10;;
59960;SDS011;55902;-37.980;-63.602;2022-11-20T10:27:08;8.07;;;1.90;;
59960;SDS011;55902;-37.980;-63.602;2022-11-20T10:29:53;7.53;;;1.67;;
59960;SDS011;55902;-37.980;-63.602;2022-11-20T10:32:36;7.00;;;1.90;;
59960;SDS011;55902;-37.980;-63.602;2022-11-20T10:37:49;6.60;;;1.90;;
59960;SDS011;55902;-37.980;-63.602;2022-11-20T10:40:27;5.28;;;1.60;;
59960;SDS011;55902;-37.980;-63.602;2022-11-20T10:43:02;5.70;;;1.98;;
59960;SDS011;55902;-37.980;-63.602;2022-11-20T10:46:08;5.55;;;1.67;;
59960;SDS011;55902;-37.980;-63.602;2022-11-20T10:48:44;6.57;;;2.10;;
59960;SDS011;55902;-37.980;-63.602;2022-11-20T10:56:46;5.45;;;1.58;;
59960;SDS011;55902;-37.980;-63.602;2022-11-20T11:02:18;7.13;;;1.95;;
59960;SDS011;55902;-37.980;-63.602;2022-11-20T11:04:55;4.30;;;1.50;;
59960;SDS011;55902;-37.980;-63.602;2022-11-20T11:07:48;4.45;;;1.50;;
59960;SDS011;55902;-37.980;-63.602;2022-11-20T11:13:06;3.70;;;1.73;;
59960;SDS011;55902;-37.980;-63.602;2022-11-20T11:15:44;4.35;;;1.40;;
59960;SDS011;55902;-37.980;-63.602;2022-11-20T11:18:24;5.85;;;1.50;;
59960;SDS011;55902;-37.980;-63.602;2022-11-20T11:21:02;4.00;;;1.40;;
59960;SDS011;55902;-37.980;-63.602;2022-11-20T11:23:34;3.63;;;1.20;;
59960;SDS011;55902;-37.980;-63.602;2022-11-20T11:26:04;1.88;;;1.20;;
59960;SDS011;55902;-37.980;-63.602;2022-11-20T11:28:57;5.22;;;1.40;;
59960;SDS011;55902;-37.980;-63.602;2022-11-20T11:31:32;4.45;;;1.30;;
59960;SDS011;55902;-37.980;-63.602;2022-11-20T11:34:18;4.38;;;1.45;;
59960;SDS011;55902;-37.980;-63.602;2022-11-20T11:39:37;4.10;;;1.23;;
59960;SDS011;55902;-37.980;-63.602;2022-11-20T11:42:07;4.20;;;1.33;;
59960;SDS011;55902;-37.980;-63.602;2022-11-20T11:44:48;3.13;;;1.30;;
59960;SDS011;55902;-37.980;-63.602;2022-11-20T11:47:37;3.30;;;1.10;;
59960;SDS011;55902;-37.980;-63.602;2022-11-20T11:53:26;2.85;;;1.20;;
59960;SDS011;55902;-37.980;-63.602;2022-11-20T12:01:19;2.75;;;1.10;;
59960;SDS011;55902;-37.980;-63.602;2022-11-20T12:03:55;3.03;;;1.13;;
59960;SDS011;55902;-37.980;-63.602;2022-11-20T12:06:34;2.22;;;0.90;;
59960;SDS011;55902;-37.980;-63.602;2022-11-20T12:09:11;2.15;;;0.90;;
59960;SDS011;55902;-37.980;-63.602;2022-11-20T12:12:04;4.57;;;1.00;;
59960;SDS011;55902;-37.980;-63.602;2022-11-20T12:17:07;2.13;;;0.90;;
59960;SDS011;55902;-37.980;-63.602;2022-11-20T12:19:39;2.65;;;0.80;;
59960;SDS011;55902;-37.980;-63.602;2022-11-20T12:30:36;1.55;;;0.80;;
59960;SDS011;55902;-37.980;-63.602;2022-11-20T12:33:22;3.97;;;1.00;;
59960;SDS011;55902;-37.980;-63.602;2022-11-20T12:38:32;2.05;;;0.80;;
59960;SDS011;55902;-37.980;-63.602;2022-11-20T12:44:16;3.10;;;1.00;;
59960;SDS011;55902;-37.980;-63.602;2022-11-20T12:58:40;3.38;;;0.80;;
59960;SDS011;55902;-37.980;-63.602;2022-11-20T13:01:20;2.10;;;0.90;;
59960;SDS011;55902;-37.980;-63.602;2022-11-20T13:07:00;2.67;;;0.95;;
59960;SDS011;55902;-37.980;-63.602;2022-11-20T13:09:42;2.42;;;1.00;;
59960;SDS011;55902;-37.980;-63.602;2022-11-20T13:15:05;3.15;;;0.90;;
59960;SDS011;55902;-37.980;-63.602;2022-11-20T13:18:02;2.63;;;1.30;;
59960;SDS011;55902;-37.980;-63.602;2022-11-20T13:20:40;4.82;;;0.82;;
59960;SDS011;55902;-37.980;-63.602;2022-11-20T13:23:22;3.55;;;0.80;;
59960;SDS011;55902;-37.980;-63.602;2022-11-20T13:25:51;3.03;;;0.90;;
59960;SDS011;55902;-37.980;-63.602;2022-11-20T13:28:29;2.50;;;0.80;;
59960;SDS011;55902;-37.980;-63.602;2022-11-20T13:30:59;2.42;;;0.75;;
59960;SDS011;55902;-37.980;-63.602;2022-11-20T13:33:32;3.22;;;0.98;;
59960;SDS011;55902;-37.980;-63.602;2022-11-20T13:38:49;4.72;;;1.02;;
59960;SDS011;55902;-37.980;-63.602;2022-11-20T13:41:27;2.15;;;0.90;;
59960;SDS011;55902;-37.980;-63.602;2022-11-20T13:44:20;1.23;;;0.70;;
59960;SDS011;55902;-37.980;-63.602;2022-11-20T13:46:52;2.80;;;0.80;;
59960;SDS011;55902;-37.980;-63.602;2022-11-20T13:49:29;1.83;;;0.75;;
59960;SDS011;55902;-37.980;-63.602;2022-11-20T14:00:19;5.30;;;0.70;;
59960;SDS011;55902;-37.980;-63.602;2022-11-20T14:05:45;2.67;;;0.70;;
59960;SDS011;55902;-37.980;-63.602;2022-11-20T14:11:18;4.85;;;0.90;;
59960;SDS011;55902;-37.980;-63.602;2022-11-20T14:14:00;3.63;;;0.70;;
59960;SDS011;55902;-37.980;-63.602;2022-11-20T14:16:40;1.98;;;0.80;;
59960;SDS011;55902;-37.980;-63.602;2022-11-20T14:21:49;2.38;;;0.80;;
59960;SDS011;55902;-37.980;-63.602;2022-11-20T14:24:23;1.83;;;0.85;;
59960;SDS011;55902;-37.980;-63.602;2022-11-20T14:26:51;3.78;;;0.93;;
59960;SDS011;55902;-37.980;-63.602;2022-11-20T14:29:27;2.17;;;0.70;;
59960;SDS011;55902;-37.980;-63.602;2022-11-20T14:32:01;5.25;;;0.80;;
59960;SDS011;55902;-37.980;-63.602;2022-11-20T14:34:30;2.40;;;0.70;;
59960;SDS011;55902;-37.980;-63.602;2022-11-20T14:37:02;3.05;;;0.90;;
59960;SDS011;55902;-37.980;-63.602;2022-11-20T14:39:33;1.90;;;0.75;;
59960;SDS011;55902;-37.980;-63.602;2022-11-20T14:42:03;3.80;;;0.90;;
59960;SDS011;55902;-37.980;-63.602;2022-11-20T14:44:40;2.65;;;0.70;;
59960;SDS011;55902;-37.980;-63.602;2022-11-20T14:47:14;2.88;;;0.70;;
59960;SDS011;55902;-37.980;-63.602;2022-11-20T14:49:49;2.33;;;0.80;;
59960;SDS011;55902;-37.980;-63.602;2022-11-20T14:52:22;2.90;;;0.80;;
59960;SDS011;55902;-37.980;-63.602;2022-11-20T14:54:51;2.22;;;0.85;;
59960;SDS011;55902;-37.980;-63.602;2022-11-20T15:00:18;4.60;;;0.80;;
59960;SDS011;55902;-37.980;-63.602;2022-11-20T15:12:54;3.03;;;0.90;;
59960;SDS011;55902;-37.980;-63.602;2022-11-20T15:17:54;2.25;;;0.88;;
59960;SDS011;55902;-37.980;-63.602;2022-11-20T15:20:29;2.95;;;0.70;;
59960;SDS011;55902;-37.980;-63.602;2022-11-20T15:22:58;2.30;;;0.70;;
59960;SDS011;55902;-37.980;-63.602;2022-11-20T15:25:28;2.40;;;0.60;;
59960;SDS011;55902;-37.980;-63.602;2022-11-20T15:27:56;2.72;;;0.70;;
59960;SDS011;55902;-37.980;-63.602;2022-11-20T15:30:24;3.08;;;0.70;;
59960;SDS011;55902;-37.980;-63.602;2022-11-20T15:32:52;2.53;;;0.70;;
59960;SDS011;55902;-37.980;-63.602;2022-11-20T15:35:29;3.63;;;0.75;;
59960;SDS011;55902;-37.980;-63.602;2022-11-20T15:37:56;3.47;;;0.70;;
59960;SDS011;55902;-37.980;-63.602;2022-11-20T15:40:26;2.28;;;0.70;;
59960;SDS011;55902;-37.980;-63.602;2022-11-20T15:43:02;2.63;;;0.80;;
59960;SDS011;55902;-37.980;-63.602;2022-11-20T15:45:40;3.38;;;1.20;;
59960;SDS011;55902;-37.980;-63.602;2022-11-20T15:48:14;3.30;;;0.70;;
59960;SDS011;55902;-37.980;-63.602;2022-11-20T15:50:58;1.90;;;0.70;;
59960;SDS011;55902;-37.980;-63.602;2022-11-20T15:53:36;3.22;;;0.70;;
59960;SDS011;55902;-37.980;-63.602;2022-11-20T15:56:05;2.97;;;0.80;;
59960;SDS011;55902;-37.980;-63.602;2022-11-20T15:58:40;2.25;;;0.60;;
59960;SDS011;55902;-37.980;-63.602;2022-11-20T16:01:11;2.45;;;0.68;;
59960;SDS011;55902;-37.980;-63.602;2022-11-20T16:03:46;2.85;;;0.70;;
59960;SDS011;55902;-37.980;-63.602;2022-11-20T16:06:14;2.20;;;0.68;;
59960;SDS011;55902;-37.980;-63.602;2022-11-20T16:08:47;2.40;;;0.80;;
59960;SDS011;55902;-37.980;-63.602;2022-11-20T16:11:30;3.20;;;0.85;;
59960;SDS011;55902;-37.980;-63.602;2022-11-20T16:14:03;2.83;;;0.75;;
59960;SDS011;55902;-37.980;-63.602;2022-11-20T16:16:54;4.60;;;0.85;;
59960;SDS011;55902;-37.980;-63.602;2022-11-20T16:19:21;1.67;;;0.60;;
59960;SDS011;55902;-37.980;-63.602;2022-11-20T16:21:56;3.03;;;0.60;;
59960;SDS011;55902;-37.980;-63.602;2022-11-20T16:24:26;2.45;;;0.63;;
59960;SDS011;55902;-37.980;-63.602;2022-11-20T16:26:54;2.30;;;0.65;;
59960;SDS011;55902;-37.980;-63.602;2022-11-20T16:29:25;2.28;;;0.63;;
59960;SDS011;55902;-37.980;-63.602;2022-11-20T16:31:59;3.13;;;0.60;;
59960;SDS011;55902;-37.980;-63.602;2022-11-20T16:34:30;2.17;;;0.60;;
59960;SDS011;55902;-37.980;-63.602;2022-11-20T16:36:58;2.20;;;0.60;;
59960;SDS011;55902;-37.980;-63.602;2022-11-20T16:39:25;2.55;;;0.60;;
59960;SDS011;55902;-37.980;-63.602;2022-11-20T16:41:53;2.92;;;0.60;;
59960;SDS011;55902;-37.980;-63.602;2022-11-20T16:44:27;2.03;;;0.60;;
59960;SDS011;55902;-37.980;-63.602;2022-11-20T16:47:00;3.05;;;0.60;;
59960;SDS011;55902;-37.980;-63.602;2022-11-20T16:49:30;2.55;;;0.60;;
59960;SDS011;55902;-37.980;-63.602;2022-11-20T16:52:00;3.05;;;0.60;;
59960;SDS011;55902;-37.980;-63.602;2022-11-20T16:54:49;2.75;;;0.50;;
59960;SDS011;55902;-37.980;-63.602;2022-11-20T16:57:16;1.50;;;0.50;;
59960;SDS011;55902;-37.980;-63.602;2022-11-20T16:59:49;2.97;;;0.60;;
59960;SDS011;55902;-37.980;-63.602;2022-11-20T17:02:22;2.80;;;0.73;;
59960;SDS011;55902;-37.980;-63.602;2022-11-20T17:04:51;1.60;;;0.65;;